Rain radar more information rain snow radar


Equipment we use:

Davis VP2

Weather Display

BareMetal


Nearby METAR Reports

   
CYAZ - Tofino, BC
Updated: 08-17-2019 18:00
NOT Current
Mostly Cloudy  
Mostly Cloudy  
   Wind: WNW 14.8 km/h
Wind: WNW 14.8 km/h
Temperature: 17°C
Dew Point: 14°C
Humidity: 83%
Barometer: 1014.6 hPa
Clouds: Mostly Cloudy
Visibility: 24 km
Cloud details: Few Clouds 274.3 m,
Partly Cloudy 487.7 m,
Mostly Cloudy 944.9 m
CYAZ 180100Z 30008KT 15SM FEW009 SCT016 BKN031 17/14 A2996 RMK CF1CU2SC3 LAST STFD OBS/NEXT 181300UTC SLP146 DENSITY ALT 400FT
CYPR - Prince Rupert,BC
Updated: 08-18-2019 02:35
Light Rain, Overcast  
Light Rain, Overcast  
   Wind: SSE 14.8 km/h
Wind: SSE 14.8 km/h
Temperature: 14°C
Dew Point: 13°C
Humidity: 94%
Barometer: 1002 hPa
Clouds: Overcast
Visibility: 15 km
Cloud details: Mostly Cloudy 640.1 m,
Overcast 883.9 m
CYPR 180935Z AUTO 15008KT 9SM -RA BKN021 OVC029 14/13 A2959 RMK SLP023 DENSITY ALT 300FT
CYYT - St. John's, NL
Updated: 08-18-2019 02:00
Partly Cloudy  
Partly Cloudy  
   Wind: WSW 16.7 km/h
Wind: WSW 16.7 km/h
Temperature: 12°C
Dew Point: 11°C
Humidity: 94%
Barometer: 1021.7 hPa
Clouds: Partly Cloudy
Visibility: 24 km
Cloud details: Few Clouds 4876.8 m,
Partly Cloudy 6705.6 m
CYYT 180900Z 25009KT 15SM FEW160 SCT220 12/11 A3017 RMK AC1CI3 SLP219

Script developed by  Saratoga-weather.org Adapted for the template by  Weerstation Leuven